Venedocia, Ohio
Current Conditions -  °F | °C
As of 5:32 PM on Thursday 25 Dec 2014 (Local Time) from KAXV Reporting Station
Overcast Overcast  
Wind Chill: 32°   Ceiling: 2600
Heat Index: 37°   Visibility: 10mi
Dew Point: 34°   Wind: 7mph
Humidity: 87%   Direction: 220°SW
Pressure: 30.13"   Gusts: NA
Location:  40.79°N, 84.46°W
Report Text: KAXV 252232Z AUTO 22006KT 10SM OVC026 03/01 A3013 RMK AO2
Loading
Personal Weather Stations






























Interactive Weather Map New forecast layout! Learn more

10-Day Weather Forecast

Advertisements
Track Severe Weather on mobile